sensor_id;sensor_type;location;lat;lon;timestamp;P1;durP1;ratioP1;P2;durP2;ratioP2
17175;SDS011;8703;48.996;9.594;2023-05-07T00:00:04;2.93;;;1.60;;
17175;SDS011;8703;48.996;9.594;2023-05-07T00:02:33;2.30;;;1.70;;
17175;SDS011;8703;48.996;9.594;2023-05-07T00:05:00;3.83;;;1.60;;
17175;SDS011;8703;48.996;9.594;2023-05-07T00:07:28;3.27;;;1.60;;
17175;SDS011;8703;48.996;9.594;2023-05-07T00:09:55;2.23;;;1.70;;
17175;SDS011;8703;48.996;9.594;2023-05-07T00:12:24;4.03;;;1.63;;
17175;SDS011;8703;48.996;9.594;2023-05-07T00:14:51;2.50;;;1.80;;
17175;SDS011;8703;48.996;9.594;2023-05-07T00:17:19;2.20;;;1.70;;
17175;SDS011;8703;48.996;9.594;2023-05-07T00:19:46;4.50;;;1.83;;
17175;SDS011;8703;48.996;9.594;2023-05-07T00:22:13;3.00;;;1.50;;
17175;SDS011;8703;48.996;9.594;2023-05-07T00:24:41;1.70;;;1.60;;
17175;SDS011;8703;48.996;9.594;2023-05-07T00:27:08;5.43;;;1.80;;
17175;SDS011;8703;48.996;9.594;2023-05-07T00:29:37;3.30;;;1.60;;
17175;SDS011;8703;48.996;9.594;2023-05-07T00:32:04;2.37;;;1.30;;
17175;SDS011;8703;48.996;9.594;2023-05-07T00:34:32;3.83;;;1.60;;
17175;SDS011;8703;48.996;9.594;2023-05-07T00:36:59;5.27;;;1.67;;
17175;SDS011;8703;48.996;9.594;2023-05-07T00:39:27;6.23;;;1.80;;
17175;SDS011;8703;48.996;9.594;2023-05-07T00:41:54;6.10;;;1.63;;
17175;SDS011;8703;48.996;9.594;2023-05-07T00:44:22;3.70;;;2.00;;
17175;SDS011;8703;48.996;9.594;2023-05-07T00:46:50;5.43;;;2.40;;
17175;SDS011;8703;48.996;9.594;2023-05-07T00:49:18;3.67;;;2.07;;
17175;SDS011;8703;48.996;9.594;2023-05-07T00:51:45;5.63;;;3.17;;
17175;SDS011;8703;48.996;9.594;2023-05-07T00:54:13;4.93;;;3.23;;
17175;SDS011;8703;48.996;9.594;2023-05-07T00:56:40;5.20;;;3.30;;
17175;SDS011;8703;48.996;9.594;2023-05-07T00:59:08;6.57;;;2.70;;
17175;SDS011;8703;48.996;9.594;2023-05-07T01:01:35;5.10;;;2.70;;
17175;SDS011;8703;48.996;9.594;2023-05-07T01:04:04;7.67;;;4.47;;
17175;SDS011;8703;48.996;9.594;2023-05-07T01:06:31;4.87;;;2.50;;
17175;SDS011;8703;48.996;9.594;2023-05-07T01:08:59;4.63;;;2.10;;
17175;SDS011;8703;48.996;9.594;2023-05-07T01:11:27;2.70;;;2.20;;
17175;SDS011;8703;48.996;9.594;2023-05-07T01:13:54;3.27;;;2.33;;
17175;SDS011;8703;48.996;9.594;2023-05-07T01:16:22;4.43;;;1.90;;
17175;SDS011;8703;48.996;9.594;2023-05-07T01:18:49;5.07;;;2.20;;
17175;SDS011;8703;48.996;9.594;2023-05-07T01:21:18;4.23;;;2.00;;
17175;SDS011;8703;48.996;9.594;2023-05-07T01:23:47;3.53;;;2.00;;
17175;SDS011;8703;48.996;9.594;2023-05-07T01:26:15;3.73;;;2.10;;
17175;SDS011;8703;48.996;9.594;2023-05-07T01:28:44;4.47;;;2.40;;
17175;SDS011;8703;48.996;9.594;2023-05-07T01:31:11;2.67;;;2.07;;
17175;SDS011;8703;48.996;9.594;2023-05-07T01:33:39;4.30;;;1.90;;
17175;SDS011;8703;48.996;9.594;2023-05-07T01:36:07;4.00;;;2.00;;
17175;SDS011;8703;48.996;9.594;2023-05-07T01:38:36;4.63;;;2.00;;
17175;SDS011;8703;48.996;9.594;2023-05-07T01:41:05;3.17;;;1.80;;
17175;SDS011;8703;48.996;9.594;2023-05-07T01:43:32;2.10;;;1.70;;
17175;SDS011;8703;48.996;9.594;2023-05-07T01:46:00;3.13;;;2.20;;
17175;SDS011;8703;48.996;9.594;2023-05-07T01:48:28;2.87;;;1.90;;
17175;SDS011;8703;48.996;9.594;2023-05-07T01:50:56;4.27;;;2.20;;
17175;SDS011;8703;48.996;9.594;2023-05-07T01:53:25;4.97;;;2.13;;
17175;SDS011;8703;48.996;9.594;2023-05-07T01:55:53;4.20;;;1.83;;
17175;SDS011;8703;48.996;9.594;2023-05-07T01:58:22;2.50;;;1.90;;
17175;SDS011;8703;48.996;9.594;2023-05-07T02:00:50;2.07;;;1.80;;
17175;SDS011;8703;48.996;9.594;2023-05-07T02:03:17;2.80;;;1.67;;
17175;SDS011;8703;48.996;9.594;2023-05-07T02:05:44;4.27;;;1.90;;
17175;SDS011;8703;48.996;9.594;2023-05-07T02:08:12;4.40;;;1.70;;
17175;SDS011;8703;48.996;9.594;2023-05-07T02:10:39;2.30;;;1.50;;
17175;SDS011;8703;48.996;9.594;2023-05-07T02:13:06;2.03;;;1.50;;
17175;SDS011;8703;48.996;9.594;2023-05-07T02:15:35;1.80;;;1.50;;
17175;SDS011;8703;48.996;9.594;2023-05-07T02:18:03;2.63;;;1.63;;
17175;SDS011;8703;48.996;9.594;2023-05-07T02:20:31;2.77;;;1.80;;
17175;SDS011;8703;48.996;9.594;2023-05-07T02:22:59;2.20;;;2.00;;
17175;SDS011;8703;48.996;9.594;2023-05-07T02:25:26;2.97;;;1.90;;
17175;SDS011;8703;48.996;9.594;2023-05-07T02:27:54;2.10;;;1.80;;
17175;SDS011;8703;48.996;9.594;2023-05-07T02:30:21;2.07;;;1.87;;
17175;SDS011;8703;48.996;9.594;2023-05-07T02:32:51;5.40;;;1.80;;
17175;SDS011;8703;48.996;9.594;2023-05-07T02:35:18;3.70;;;1.90;;
17175;SDS011;8703;48.996;9.594;2023-05-07T02:37:46;3.73;;;1.63;;
17175;SDS011;8703;48.996;9.594;2023-05-07T02:40:13;3.53;;;1.73;;
17175;SDS011;8703;48.996;9.594;2023-05-07T02:42:40;3.63;;;1.67;;
17175;SDS011;8703;48.996;9.594;2023-05-07T02:45:08;2.30;;;1.63;;
17175;SDS011;8703;48.996;9.594;2023-05-07T02:47:36;2.70;;;1.60;;
17175;SDS011;8703;48.996;9.594;2023-05-07T02:50:05;1.77;;;1.67;;
17175;SDS011;8703;48.996;9.594;2023-05-07T02:52:33;3.50;;;1.70;;
17175;SDS011;8703;48.996;9.594;2023-05-07T02:55:00;3.47;;;1.87;;
17175;SDS011;8703;48.996;9.594;2023-05-07T02:57:28;3.67;;;1.77;;
17175;SDS011;8703;48.996;9.594;2023-05-07T02:59:57;2.00;;;1.77;;
17175;SDS011;8703;48.996;9.594;2023-05-07T03:02:25;5.40;;;1.80;;
17175;SDS011;8703;48.996;9.594;2023-05-07T03:04:52;2.23;;;1.60;;
17175;SDS011;8703;48.996;9.594;2023-05-07T03:07:21;7.03;;;1.60;;
17175;SDS011;8703;48.996;9.594;2023-05-07T03:09:48;3.60;;;1.67;;
17175;SDS011;8703;48.996;9.594;2023-05-07T03:12:15;3.43;;;1.70;;
17175;SDS011;8703;48.996;9.594;2023-05-07T03:14:43;2.73;;;1.50;;
17175;SDS011;8703;48.996;9.594;2023-05-07T03:17:10;4.37;;;1.60;;
17175;SDS011;8703;48.996;9.594;2023-05-07T03:19:37;2.67;;;1.80;;
17175;SDS011;8703;48.996;9.594;2023-05-07T03:22:05;4.93;;;1.80;;
17175;SDS011;8703;48.996;9.594;2023-05-07T03:24:33;5.03;;;1.77;;
17175;SDS011;8703;48.996;9.594;2023-05-07T03:27:01;2.20;;;1.60;;
17175;SDS011;8703;48.996;9.594;2023-05-07T03:29:28;2.23;;;1.70;;
17175;SDS011;8703;48.996;9.594;2023-05-07T03:31:55;2.53;;;1.70;;
17175;SDS011;8703;48.996;9.594;2023-05-07T03:34:23;5.83;;;2.00;;
17175;SDS011;8703;48.996;9.594;2023-05-07T03:36:50;2.63;;;1.70;;
17175;SDS011;8703;48.996;9.594;2023-05-07T03:39:17;4.07;;;1.80;;
17175;SDS011;8703;48.996;9.594;2023-05-07T03:41:46;2.77;;;1.77;;
17175;SDS011;8703;48.996;9.594;2023-05-07T03:44:13;4.80;;;2.00;;
17175;SDS011;8703;48.996;9.594;2023-05-07T03:46:41;4.87;;;2.23;;
17175;SDS011;8703;48.996;9.594;2023-05-07T03:49:08;3.80;;;2.20;;
17175;SDS011;8703;48.996;9.594;2023-05-07T03:51:36;3.83;;;1.90;;
17175;SDS011;8703;48.996;9.594;2023-05-07T03:54:03;3.43;;;1.80;;
17175;SDS011;8703;48.996;9.594;2023-05-07T03:56:30;2.80;;;1.90;;
17175;SDS011;8703;48.996;9.594;2023-05-07T03:58:59;3.03;;;1.53;;
17175;SDS011;8703;48.996;9.594;2023-05-07T04:01:27;3.07;;;1.77;;
17175;SDS011;8703;48.996;9.594;2023-05-07T04:03:55;2.33;;;1.87;;
17175;SDS011;8703;48.996;9.594;2023-05-07T04:06:22;2.93;;;2.00;;
17175;SDS011;8703;48.996;9.594;2023-05-07T04:08:50;3.87;;;2.00;;
17175;SDS011;8703;48.996;9.594;2023-05-07T04:11:17;3.03;;;1.90;;
17175;SDS011;8703;48.996;9.594;2023-05-07T04:13:45;2.57;;;1.93;;
17175;SDS011;8703;48.996;9.594;2023-05-07T04:16:14;2.57;;;2.10;;
17175;SDS011;8703;48.996;9.594;2023-05-07T04:18:41;3.43;;;2.20;;
17175;SDS011;8703;48.996;9.594;2023-05-07T04:21:13;7.83;;;2.10;;
17175;SDS011;8703;48.996;9.594;2023-05-07T04:23:41;2.37;;;2.07;;
17175;SDS011;8703;48.996;9.594;2023-05-07T04:26:09;2.47;;;1.90;;
17175;SDS011;8703;48.996;9.594;2023-05-07T04:28:36;2.60;;;1.70;;
17175;SDS011;8703;48.996;9.594;2023-05-07T04:31:04;2.40;;;1.87;;
17175;SDS011;8703;48.996;9.594;2023-05-07T04:33:33;3.20;;;2.10;;
17175;SDS011;8703;48.996;9.594;2023-05-07T04:36:01;4.07;;;2.30;;
17175;SDS011;8703;48.996;9.594;2023-05-07T04:38:29;3.10;;;2.13;;
17175;SDS011;8703;48.996;9.594;2023-05-07T04:40:57;3.93;;;2.20;;
17175;SDS011;8703;48.996;9.594;2023-05-07T04:43:28;4.07;;;2.10;;
17175;SDS011;8703;48.996;9.594;2023-05-07T04:45:56;3.93;;;2.07;;
17175;SDS011;8703;48.996;9.594;2023-05-07T04:48:23;2.30;;;2.10;;
17175;SDS011;8703;48.996;9.594;2023-05-07T04:50:52;3.43;;;2.40;;
17175;SDS011;8703;48.996;9.594;2023-05-07T04:53:20;5.67;;;2.30;;
17175;SDS011;8703;48.996;9.594;2023-05-07T04:55:47;2.83;;;2.37;;
17175;SDS011;8703;48.996;9.594;2023-05-07T04:58:15;3.87;;;2.40;;
17175;SDS011;8703;48.996;9.594;2023-05-07T05:00:42;3.00;;;2.40;;
17175;SDS011;8703;48.996;9.594;2023-05-07T05:03:09;3.70;;;2.63;;
17175;SDS011;8703;48.996;9.594;2023-05-07T05:05:37;4.97;;;2.50;;
17175;SDS011;8703;48.996;9.594;2023-05-07T05:08:05;11.60;;;6.57;;
17175;SDS011;8703;48.996;9.594;2023-05-07T05:10:33;32.60;;;16.70;;
17175;SDS011;8703;48.996;9.594;2023-05-07T05:13:00;10.73;;;5.50;;
17175;SDS011;8703;48.996;9.594;2023-05-07T05:15:28;9.70;;;5.63;;
17175;SDS011;8703;48.996;9.594;2023-05-07T05:17:55;15.70;;;9.20;;
17175;SDS011;8703;48.996;9.594;2023-05-07T05:20:22;34.23;;;20.87;;
17175;SDS011;8703;48.996;9.594;2023-05-07T05:22:50;11.67;;;7.00;;
17175;SDS011;8703;48.996;9.594;2023-05-07T05:25:18;7.20;;;3.70;;
17175;SDS011;8703;48.996;9.594;2023-05-07T05:27:46;7.53;;;4.27;;
17175;SDS011;8703;48.996;9.594;2023-05-07T05:30:13;18.00;;;9.83;;
17175;SDS011;8703;48.996;9.594;2023-05-07T05:32:41;19.43;;;10.07;;
17175;SDS011;8703;48.996;9.594;2023-05-07T05:35:08;17.10;;;9.83;;
17175;SDS011;8703;48.996;9.594;2023-05-07T05:37:35;72.47;;;34.80;;
17175;SDS011;8703;48.996;9.594;2023-05-07T05:40:03;25.27;;;14.13;;
17175;SDS011;8703;48.996;9.594;2023-05-07T05:42:32;15.67;;;9.37;;
17175;SDS011;8703;48.996;9.594;2023-05-07T05:45:00;17.10;;;9.27;;
17175;SDS011;8703;48.996;9.594;2023-05-07T05:47:27;27.50;;;15.07;;
17175;SDS011;8703;48.996;9.594;2023-05-07T05:49:55;20.00;;;11.80;;
17175;SDS011;8703;48.996;9.594;2023-05-07T05:52:22;16.13;;;8.67;;
17175;SDS011;8703;48.996;9.594;2023-05-07T05:54:50;53.23;;;27.73;;
17175;SDS011;8703;48.996;9.594;2023-05-07T05:57:17;64.33;;;34.00;;
17175;SDS011;8703;48.996;9.594;2023-05-07T05:59:46;30.30;;;17.80;;
17175;SDS011;8703;48.996;9.594;2023-05-07T06:02:13;45.07;;;24.60;;
17175;SDS011;8703;48.996;9.594;2023-05-07T06:04:41;75.57;;;40.07;;
17175;SDS011;8703;48.996;9.594;2023-05-07T06:07:08;208.40;;;98.57;;
17175;SDS011;8703;48.996;9.594;2023-05-07T06:09:36;50.47;;;27.77;;
17175;SDS011;8703;48.996;9.594;2023-05-07T06:12:03;64.90;;;34.73;;
17175;SDS011;8703;48.996;9.594;2023-05-07T06:14:31;49.90;;;27.60;;
17175;SDS011;8703;48.996;9.594;2023-05-07T06:17:00;49.23;;;28.10;;
17175;SDS011;8703;48.996;9.594;2023-05-07T06:19:27;43.30;;;27.33;;
17175;SDS011;8703;48.996;9.594;2023-05-07T06:21:55;26.17;;;15.87;;
17175;SDS011;8703;48.996;9.594;2023-05-07T06:24:22;20.00;;;12.40;;
17175;SDS011;8703;48.996;9.594;2023-05-07T06:26:50;14.30;;;7.53;;
17175;SDS011;8703;48.996;9.594;2023-05-07T06:29:17;5.77;;;3.57;;
17175;SDS011;8703;48.996;9.594;2023-05-07T06:31:45;6.97;;;4.60;;
17175;SDS011;8703;48.996;9.594;2023-05-07T06:34:13;10.27;;;6.70;;
17175;SDS011;8703;48.996;9.594;2023-05-07T06:36:41;25.13;;;15.83;;
17175;SDS011;8703;48.996;9.594;2023-05-07T06:39:08;16.57;;;10.17;;
17175;SDS011;8703;48.996;9.594;2023-05-07T06:41:36;10.57;;;7.53;;
17175;SDS011;8703;48.996;9.594;2023-05-07T06:44:04;9.57;;;6.37;;
17175;SDS011;8703;48.996;9.594;2023-05-07T06:46:31;12.40;;;8.73;;
17175;SDS011;8703;48.996;9.594;2023-05-07T06:48:58;9.00;;;6.63;;
17175;SDS011;8703;48.996;9.594;2023-05-07T06:51:27;9.43;;;7.90;;
17175;SDS011;8703;48.996;9.594;2023-05-07T06:53:55;8.33;;;6.07;;
17175;SDS011;8703;48.996;9.594;2023-05-07T06:56:22;8.13;;;4.73;;
17175;SDS011;8703;48.996;9.594;2023-05-07T06:58:49;6.40;;;3.83;;
17175;SDS011;8703;48.996;9.594;2023-05-07T07:01:17;4.07;;;2.80;;
17175;SDS011;8703;48.996;9.594;2023-05-07T07:03:44;3.27;;;2.30;;
17175;SDS011;8703;48.996;9.594;2023-05-07T07:06:12;4.57;;;2.33;;
17175;SDS011;8703;48.996;9.594;2023-05-07T07:08:41;3.00;;;2.40;;
17175;SDS011;8703;48.996;9.594;2023-05-07T07:11:08;3.13;;;2.50;;
17175;SDS011;8703;48.996;9.594;2023-05-07T07:13:35;3.13;;;2.27;;
17175;SDS011;8703;48.996;9.594;2023-05-07T07:16:05;5.20;;;2.90;;
17175;SDS011;8703;48.996;9.594;2023-05-07T07:18:32;3.07;;;2.30;;
17175;SDS011;8703;48.996;9.594;2023-05-07T07:21:00;4.73;;;2.67;;
17175;SDS011;8703;48.996;9.594;2023-05-07T07:23:28;3.00;;;2.70;;
17175;SDS011;8703;48.996;9.594;2023-05-07T07:25:56;2.53;;;2.07;;
17175;SDS011;8703;48.996;9.594;2023-05-07T07:28:24;2.90;;;1.98;;
17175;SDS011;8703;48.996;9.594;2023-05-07T07:30:51;4.85;;;1.90;;
17175;SDS011;8703;48.996;9.594;2023-05-07T07:33:19;2.27;;;1.90;;
17175;SDS011;8703;48.996;9.594;2023-05-07T07:35:46;2.20;;;1.93;;
17175;SDS011;8703;48.996;9.594;2023-05-07T07:38:13;3.05;;;1.80;;
17175;SDS011;8703;48.996;9.594;2023-05-07T07:40:41;2.70;;;2.00;;
17175;SDS011;8703;48.996;9.594;2023-05-07T07:43:10;4.47;;;1.70;;
17175;SDS011;8703;48.996;9.594;2023-05-07T07:45:37;3.40;;;2.60;;
17175;SDS011;8703;48.996;9.594;2023-05-07T07:48:05;4.43;;;2.40;;
17175;SDS011;8703;48.996;9.594;2023-05-07T07:50:32;4.43;;;3.90;;
17175;SDS011;8703;48.996;9.594;2023-05-07T07:52:59;3.35;;;2.08;;
17175;SDS011;8703;48.996;9.594;2023-05-07T07:55:27;5.35;;;4.85;;
17175;SDS011;8703;48.996;9.594;2023-05-07T07:57:56;3.00;;;2.70;;
17175;SDS011;8703;48.996;9.594;2023-05-07T08:00:24;2.78;;;2.47;;
17175;SDS011;8703;48.996;9.594;2023-05-07T08:02:52;2.33;;;1.85;;
17175;SDS011;8703;48.996;9.594;2023-05-07T08:05:19;3.22;;;1.98;;
17175;SDS011;8703;48.996;9.594;2023-05-07T08:07:47;2.63;;;1.92;;
17175;SDS011;8703;48.996;9.594;2023-05-07T08:10:16;3.35;;;3.08;;
17175;SDS011;8703;48.996;9.594;2023-05-07T08:12:46;2.95;;;1.92;;
17175;SDS011;8703;48.996;9.594;2023-05-07T08:15:13;2.67;;;1.70;;
17175;SDS011;8703;48.996;9.594;2023-05-07T08:17:43;3.92;;;1.70;;
17175;SDS011;8703;48.996;9.594;2023-05-07T08:20:10;2.47;;;1.77;;
17175;SDS011;8703;48.996;9.594;2023-05-07T08:22:37;2.75;;;2.00;;
17175;SDS011;8703;48.996;9.594;2023-05-07T08:25:05;2.85;;;2.00;;
17175;SDS011;8703;48.996;9.594;2023-05-07T08:27:33;3.53;;;2.10;;
17175;SDS011;8703;48.996;9.594;2023-05-07T08:30:00;1.90;;;1.70;;
17175;SDS011;8703;48.996;9.594;2023-05-07T08:32:28;2.72;;;2.50;;
17175;SDS011;8703;48.996;9.594;2023-05-07T08:34:57;2.25;;;1.75;;
17175;SDS011;8703;48.996;9.594;2023-05-07T08:37:24;2.80;;;1.63;;
17175;SDS011;8703;48.996;9.594;2023-05-07T08:39:52;1.67;;;1.58;;
17175;SDS011;8703;48.996;9.594;2023-05-07T08:42:19;2.65;;;1.50;;
17175;SDS011;8703;48.996;9.594;2023-05-07T08:44:48;1.60;;;1.50;;
17175;SDS011;8703;48.996;9.594;2023-05-07T08:47:19;2.10;;;1.70;;
17175;SDS011;8703;48.996;9.594;2023-05-07T08:49:47;2.22;;;1.48;;
17175;SDS011;8703;48.996;9.594;2023-05-07T08:52:16;2.95;;;1.80;;
17175;SDS011;8703;48.996;9.594;2023-05-07T08:54:45;2.38;;;1.52;;
17175;SDS011;8703;48.996;9.594;2023-05-07T08:57:12;2.55;;;1.70;;
17175;SDS011;8703;48.996;9.594;2023-05-07T08:59:40;2.92;;;1.70;;
17175;SDS011;8703;48.996;9.594;2023-05-07T09:02:07;3.08;;;1.58;;
17175;SDS011;8703;48.996;9.594;2023-05-07T09:04:36;1.48;;;1.38;;
17175;SDS011;8703;48.996;9.594;2023-05-07T09:07:04;2.35;;;1.40;;
17175;SDS011;8703;48.996;9.594;2023-05-07T09:09:33;1.65;;;1.50;;
17175;SDS011;8703;48.996;9.594;2023-05-07T09:12:00;1.58;;;1.40;;
17175;SDS011;8703;48.996;9.594;2023-05-07T09:14:28;1.95;;;1.30;;
17175;SDS011;8703;48.996;9.594;2023-05-07T09:16:56;2.30;;;1.42;;
17175;SDS011;8703;48.996;9.594;2023-05-07T09:19:23;3.00;;;1.52;;
17175;SDS011;8703;48.996;9.594;2023-05-07T09:21:57;2.08;;;1.48;;
17175;SDS011;8703;48.996;9.594;2023-05-07T09:24:25;1.90;;;1.50;;
17175;SDS011;8703;48.996;9.594;2023-05-07T09:26:55;1.45;;;1.17;;
17175;SDS011;8703;48.996;9.594;2023-05-07T09:29:25;2.03;;;1.67;;
17175;SDS011;8703;48.996;9.594;2023-05-07T09:31:53;2.00;;;1.10;;
17175;SDS011;8703;48.996;9.594;2023-05-07T09:34:21;2.17;;;1.30;;
17175;SDS011;8703;48.996;9.594;2023-05-07T09:36:48;2.00;;;1.38;;
17175;SDS011;8703;48.996;9.594;2023-05-07T09:39:16;3.90;;;1.48;;
17175;SDS011;8703;48.996;9.594;2023-05-07T09:41:44;1.95;;;1.30;;
17175;SDS011;8703;48.996;9.594;2023-05-07T09:44:13;4.43;;;1.70;;
17175;SDS011;8703;48.996;9.594;2023-05-07T09:46:41;8.10;;;1.80;;
17175;SDS011;8703;48.996;9.594;2023-05-07T09:49:11;2.15;;;1.50;;
17175;SDS011;8703;48.996;9.594;2023-05-07T09:51:43;2.13;;;1.42;;
17175;SDS011;8703;48.996;9.594;2023-05-07T09:54:14;1.40;;;1.15;;
17175;SDS011;8703;48.996;9.594;2023-05-07T09:56:42;3.10;;;1.30;;
17175;SDS011;8703;48.996;9.594;2023-05-07T09:59:10;3.47;;;1.70;;
17175;SDS011;8703;48.996;9.594;2023-05-07T10:01:41;2.45;;;1.50;;
17175;SDS011;8703;48.996;9.594;2023-05-07T10:04:09;5.50;;;3.85;;
17175;SDS011;8703;48.996;9.594;2023-05-07T10:06:37;3.75;;;2.92;;
17175;SDS011;8703;48.996;9.594;2023-05-07T10:09:05;2.33;;;1.50;;
17175;SDS011;8703;48.996;9.594;2023-05-07T10:11:33;2.80;;;1.60;;
17175;SDS011;8703;48.996;9.594;2023-05-07T10:14:01;3.08;;;1.20;;
17175;SDS011;8703;48.996;9.594;2023-05-07T10:16:32;2.67;;;1.10;;
17175;SDS011;8703;48.996;9.594;2023-05-07T10:19:02;1.58;;;1.20;;
17175;SDS011;8703;48.996;9.594;2023-05-07T10:21:30;1.67;;;1.30;;
17175;SDS011;8703;48.996;9.594;2023-05-07T10:23:59;1.67;;;1.20;;
17175;SDS011;8703;48.996;9.594;2023-05-07T10:26:31;2.03;;;1.23;;
17175;SDS011;8703;48.996;9.594;2023-05-07T10:29:02;2.03;;;1.10;;
17175;SDS011;8703;48.996;9.594;2023-05-07T10:31:42;1.60;;;1.17;;
17175;SDS011;8703;48.996;9.594;2023-05-07T10:34:21;2.25;;;1.20;;
17175;SDS011;8703;48.996;9.594;2023-05-07T10:36:50;2.30;;;1.20;;
17175;SDS011;8703;48.996;9.594;2023-05-07T10:39:19;1.80;;;1.40;;
17175;SDS011;8703;48.996;9.594;2023-05-07T10:41:46;1.58;;;1.20;;
17175;SDS011;8703;48.996;9.594;2023-05-07T10:44:24;1.52;;;1.30;;
17175;SDS011;8703;48.996;9.594;2023-05-07T10:47:05;3.00;;;1.40;;
17175;SDS011;8703;48.996;9.594;2023-05-07T10:49:34;6.63;;;2.15;;
17175;SDS011;8703;48.996;9.594;2023-05-07T10:55:18;2.35;;;1.50;;
17175;SDS011;8703;48.996;9.594;2023-05-07T10:57:46;2.63;;;1.27;;
17175;SDS011;8703;48.996;9.594;2023-05-07T11:03:10;2.97;;;1.88;;
17175;SDS011;8703;48.996;9.594;2023-05-07T11:05:39;3.13;;;1.40;;
17175;SDS011;8703;48.996;9.594;2023-05-07T11:08:07;2.08;;;1.23;;
17175;SDS011;8703;48.996;9.594;2023-05-07T11:10:48;2.05;;;1.25;;
17175;SDS011;8703;48.996;9.594;2023-05-07T11:13:16;3.00;;;2.10;;
17175;SDS011;8703;48.996;9.594;2023-05-07T11:15:44;1.20;;;1.10;;
17175;SDS011;8703;48.996;9.594;2023-05-07T11:18:14;1.77;;;1.35;;
17175;SDS011;8703;48.996;9.594;2023-05-07T11:20:47;2.03;;;1.60;;
17175;SDS011;8703;48.996;9.594;2023-05-07T11:26:21;1.30;;;1.20;;
17175;SDS011;8703;48.996;9.594;2023-05-07T11:28:49;2.42;;;1.42;;
17175;SDS011;8703;48.996;9.594;2023-05-07T11:31:17;4.15;;;1.67;;
17175;SDS011;8703;48.996;9.594;2023-05-07T11:33:49;2.17;;;1.80;;
17175;SDS011;8703;48.996;9.594;2023-05-07T11:36:18;1.90;;;1.42;;
17175;SDS011;8703;48.996;9.594;2023-05-07T11:38:46;2.58;;;2.00;;
17175;SDS011;8703;48.996;9.594;2023-05-07T11:41:13;2.35;;;1.65;;
17175;SDS011;8703;48.996;9.594;2023-05-07T11:43:53;1.80;;;1.55;;
17175;SDS011;8703;48.996;9.594;2023-05-07T11:46:24;2.25;;;1.77;;
17175;SDS011;8703;48.996;9.594;2023-05-07T11:48:54;2.83;;;2.25;;
17175;SDS011;8703;48.996;9.594;2023-05-07T11:51:22;2.83;;;1.90;;
17175;SDS011;8703;48.996;9.594;2023-05-07T11:53:51;2.40;;;1.80;;
17175;SDS011;8703;48.996;9.594;2023-05-07T11:56:18;3.47;;;2.20;;
17175;SDS011;8703;48.996;9.594;2023-05-07T11:58:46;2.35;;;1.88;;
17175;SDS011;8703;48.996;9.594;2023-05-07T12:01:15;2.50;;;1.77;;
17175;SDS011;8703;48.996;9.594;2023-05-07T12:03:44;3.42;;;2.33;;
17175;SDS011;8703;48.996;9.594;2023-05-07T12:06:13;2.67;;;1.85;;
17175;SDS011;8703;48.996;9.594;2023-05-07T12:08:42;2.05;;;1.90;;
17175;SDS011;8703;48.996;9.594;2023-05-07T12:11:11;3.00;;;1.80;;
17175;SDS011;8703;48.996;9.594;2023-05-07T12:13:41;3.42;;;2.08;;
17175;SDS011;8703;48.996;9.594;2023-05-07T12:16:09;2.97;;;2.13;;
17175;SDS011;8703;48.996;9.594;2023-05-07T12:18:36;2.63;;;2.42;;
17175;SDS011;8703;48.996;9.594;2023-05-07T12:21:04;2.42;;;1.85;;
17175;SDS011;8703;48.996;9.594;2023-05-07T12:23:34;2.85;;;2.22;;
17175;SDS011;8703;48.996;9.594;2023-05-07T12:26:01;2.40;;;2.03;;
17175;SDS011;8703;48.996;9.594;2023-05-07T12:28:29;2.65;;;1.92;;
17175;SDS011;8703;48.996;9.594;2023-05-07T12:30:57;2.50;;;2.05;;
17175;SDS011;8703;48.996;9.594;2023-05-07T12:33:25;2.15;;;1.95;;
17175;SDS011;8703;48.996;9.594;2023-05-07T12:35:54;2.38;;;1.77;;
17175;SDS011;8703;48.996;9.594;2023-05-07T12:38:22;2.00;;;1.90;;
17175;SDS011;8703;48.996;9.594;2023-05-07T12:40:53;2.55;;;2.20;;
17175;SDS011;8703;48.996;9.594;2023-05-07T12:43:21;2.17;;;1.85;;
17175;SDS011;8703;48.996;9.594;2023-05-07T12:45:52;2.30;;;1.70;;
17175;SDS011;8703;48.996;9.594;2023-05-07T12:48:21;1.98;;;1.77;;
17175;SDS011;8703;48.996;9.594;2023-05-07T12:50:52;2.55;;;1.70;;
17175;SDS011;8703;48.996;9.594;2023-05-07T12:53:20;2.30;;;2.03;;
17175;SDS011;8703;48.996;9.594;2023-05-07T12:55:49;2.03;;;1.60;;
17175;SDS011;8703;48.996;9.594;2023-05-07T12:58:19;2.28;;;1.85;;
17175;SDS011;8703;48.996;9.594;2023-05-07T13:00:47;2.70;;;1.95;;
17175;SDS011;8703;48.996;9.594;2023-05-07T13:03:22;3.30;;;2.05;;
17175;SDS011;8703;48.996;9.594;2023-05-07T13:05:51;3.88;;;2.17;;
17175;SDS011;8703;48.996;9.594;2023-05-07T13:08:25;2.95;;;1.80;;
17175;SDS011;8703;48.996;9.594;2023-05-07T13:10:55;2.47;;;1.83;;
17175;SDS011;8703;48.996;9.594;2023-05-07T13:13:23;2.30;;;2.10;;
17175;SDS011;8703;48.996;9.594;2023-05-07T13:15:50;1.98;;;1.67;;
17175;SDS011;8703;48.996;9.594;2023-05-07T13:18:18;2.35;;;1.92;;
17175;SDS011;8703;48.996;9.594;2023-05-07T13:20:45;2.92;;;2.25;;
17175;SDS011;8703;48.996;9.594;2023-05-07T13:23:13;3.70;;;1.92;;
17175;SDS011;8703;48.996;9.594;2023-05-07T13:25:40;2.38;;;2.15;;
17175;SDS011;8703;48.996;9.594;2023-05-07T13:28:09;3.05;;;2.50;;
17175;SDS011;8703;48.996;9.594;2023-05-07T13:30:36;2.30;;;1.73;;
17175;SDS011;8703;48.996;9.594;2023-05-07T13:33:05;2.17;;;2.08;;
17175;SDS011;8703;48.996;9.594;2023-05-07T13:35:33;2.42;;;1.70;;
17175;SDS011;8703;48.996;9.594;2023-05-07T13:38:00;2.40;;;1.88;;
17175;SDS011;8703;48.996;9.594;2023-05-07T13:40:28;3.10;;;1.83;;
17175;SDS011;8703;48.996;9.594;2023-05-07T13:42:56;3.70;;;1.80;;
17175;SDS011;8703;48.996;9.594;2023-05-07T13:45:27;2.40;;;1.90;;
17175;SDS011;8703;48.996;9.594;2023-05-07T13:47:55;4.80;;;2.10;;
17175;SDS011;8703;48.996;9.594;2023-05-07T13:50:23;7.57;;;2.50;;
17175;SDS011;8703;48.996;9.594;2023-05-07T13:52:51;7.10;;;2.33;;
17175;SDS011;8703;48.996;9.594;2023-05-07T13:55:19;3.78;;;2.40;;
17175;SDS011;8703;48.996;9.594;2023-05-07T13:57:53;5.25;;;2.88;;
17175;SDS011;8703;48.996;9.594;2023-05-07T14:00:21;5.28;;;2.90;;
17175;SDS011;8703;48.996;9.594;2023-05-07T14:02:52;10.00;;;3.92;;
17175;SDS011;8703;48.996;9.594;2023-05-07T14:05:20;8.13;;;4.65;;
17175;SDS011;8703;48.996;9.594;2023-05-07T14:07:48;4.53;;;4.07;;
17175;SDS011;8703;48.996;9.594;2023-05-07T14:10:16;6.32;;;4.35;;
17175;SDS011;8703;48.996;9.594;2023-05-07T14:12:44;5.03;;;4.07;;
17175;SDS011;8703;48.996;9.594;2023-05-07T14:15:11;9.63;;;5.20;;
17175;SDS011;8703;48.996;9.594;2023-05-07T14:17:42;10.30;;;6.45;;
17175;SDS011;8703;48.996;9.594;2023-05-07T14:20:14;9.18;;;5.85;;
17175;SDS011;8703;48.996;9.594;2023-05-07T14:22:41;8.32;;;5.30;;
17175;SDS011;8703;48.996;9.594;2023-05-07T14:25:09;6.97;;;5.53;;
17175;SDS011;8703;48.996;9.594;2023-05-07T14:27:36;3.67;;;3.28;;
17175;SDS011;8703;48.996;9.594;2023-05-07T14:30:04;6.07;;;4.13;;
17175;SDS011;8703;48.996;9.594;2023-05-07T14:32:32;4.55;;;3.60;;
17175;SDS011;8703;48.996;9.594;2023-05-07T14:35:00;4.40;;;3.90;;
17175;SDS011;8703;48.996;9.594;2023-05-07T14:37:28;5.80;;;4.38;;
17175;SDS011;8703;48.996;9.594;2023-05-07T14:39:56;6.63;;;4.40;;
17175;SDS011;8703;48.996;9.594;2023-05-07T14:42:23;7.15;;;4.65;;
17175;SDS011;8703;48.996;9.594;2023-05-07T14:44:51;6.13;;;4.50;;
17175;SDS011;8703;48.996;9.594;2023-05-07T14:47:18;6.82;;;4.07;;
17175;SDS011;8703;48.996;9.594;2023-05-07T14:49:46;5.40;;;4.20;;
17175;SDS011;8703;48.996;9.594;2023-05-07T14:52:13;8.45;;;4.13;;
17175;SDS011;8703;48.996;9.594;2023-05-07T14:54:42;7.72;;;5.15;;
17175;SDS011;8703;48.996;9.594;2023-05-07T14:57:10;6.88;;;4.50;;
17175;SDS011;8703;48.996;9.594;2023-05-07T14:59:39;8.20;;;4.70;;
17175;SDS011;8703;48.996;9.594;2023-05-07T15:02:07;6.68;;;4.82;;
17175;SDS011;8703;48.996;9.594;2023-05-07T15:04:34;8.05;;;5.32;;
17175;SDS011;8703;48.996;9.594;2023-05-07T15:07:03;12.25;;;5.85;;
17175;SDS011;8703;48.996;9.594;2023-05-07T15:09:30;7.80;;;5.18;;
17175;SDS011;8703;48.996;9.594;2023-05-07T15:11:59;8.57;;;6.05;;
17175;SDS011;8703;48.996;9.594;2023-05-07T15:14:27;8.20;;;6.10;;